sensor_id;sensor_type;location;lat;lon;timestamp;pressure;altitude;pressure_sealevel;temperature;humidity
41467;BME280;27205;53.690;19.948;2022-08-14T00:02:22;100040.98;;;18.48;66.58
41467;BME280;27205;53.690;19.948;2022-08-14T00:07:29;100039.80;;;18.41;66.36
41467;BME280;27205;53.690;19.948;2022-08-14T00:12:35;100033.02;;;18.34;66.74
41467;BME280;27205;53.690;19.948;2022-08-14T00:17:42;100033.08;;;18.27;67.22
41467;BME280;27205;53.690;19.948;2022-08-14T00:22:55;100026.93;;;18.20;67.20
41467;BME280;27205;53.690;19.948;2022-08-14T00:28:01;100021.80;;;18.15;67.57
41467;BME280;27205;53.690;19.948;2022-08-14T00:33:05;100017.48;;;18.09;68.32
41467;BME280;27205;53.690;19.948;2022-08-14T00:38:19;100014.74;;;18.03;68.75
41467;BME280;27205;53.690;19.948;2022-08-14T00:43:25;100008.36;;;17.97;68.69
41467;BME280;27205;53.690;19.948;2022-08-14T00:48:35;100005.91;;;17.92;69.38
41467;BME280;27205;53.690;19.948;2022-08-14T00:53:40;100001.50;;;17.87;68.85
41467;BME280;27205;53.690;19.948;2022-08-14T00:58:45;99998.40;;;17.82;69.15
41467;BME280;27205;53.690;19.948;2022-08-14T01:03:51;99990.92;;;17.78;69.60
41467;BME280;27205;53.690;19.948;2022-08-14T01:08:55;99985.73;;;17.75;69.70
41467;BME280;27205;53.690;19.948;2022-08-14T01:14:03;99981.66;;;17.70;69.42
41467;BME280;27205;53.690;19.948;2022-08-14T01:19:27;99974.40;;;17.67;69.73
41467;BME280;27205;53.690;19.948;2022-08-14T01:24:51;99973.80;;;17.64;69.87
41467;BME280;27205;53.690;19.948;2022-08-14T01:29:56;99976.60;;;17.63;69.84
41467;BME280;27205;53.690;19.948;2022-08-14T01:35:06;99972.55;;;17.62;69.80
41467;BME280;27205;53.690;19.948;2022-08-14T01:40:30;99970.22;;;17.62;70.54
41467;BME280;27205;53.690;19.948;2022-08-14T01:45:44;99962.28;;;17.61;70.57
41467;BME280;27205;53.690;19.948;2022-08-14T01:50:59;99970.71;;;17.58;70.65
41467;BME280;27205;53.690;19.948;2022-08-14T01:56:06;99975.56;;;17.52;70.55
41467;BME280;27205;53.690;19.948;2022-08-14T02:01:19;99974.54;;;17.47;71.02
41467;BME280;27205;53.690;19.948;2022-08-14T02:06:28;99975.86;;;17.44;70.76
41467;BME280;27205;53.690;19.948;2022-08-14T02:11:35;99976.52;;;17.36;71.03
41467;BME280;27205;53.690;19.948;2022-08-14T02:16:49;99977.86;;;17.28;71.76
41467;BME280;27205;53.690;19.948;2022-08-14T02:21:58;99971.84;;;17.17;72.49
41467;BME280;27205;53.690;19.948;2022-08-14T02:27:04;99965.61;;;17.07;72.79
41467;BME280;27205;53.690;19.948;2022-08-14T02:32:30;99967.32;;;16.99;72.54
41467;BME280;27205;53.690;19.948;2022-08-14T02:37:38;99965.32;;;16.95;72.00
41467;BME280;27205;53.690;19.948;2022-08-14T02:42:50;99962.95;;;16.91;72.59
41467;BME280;27205;53.690;19.948;2022-08-14T02:48:03;99958.92;;;16.85;73.18
41467;BME280;27205;53.690;19.948;2022-08-14T02:53:29;99959.91;;;16.80;73.70
41467;BME280;27205;53.690;19.948;2022-08-14T02:58:37;99964.41;;;16.77;73.26
41467;BME280;27205;53.690;19.948;2022-08-14T03:03:47;99961.67;;;16.81;73.53
41467;BME280;27205;53.690;19.948;2022-08-14T03:08:53;99953.52;;;16.83;73.81
41467;BME280;27205;53.690;19.948;2022-08-14T03:13:59;99952.52;;;16.85;74.11
41467;BME280;27205;53.690;19.948;2022-08-14T03:19:04;99948.15;;;16.88;74.17
41467;BME280;27205;53.690;19.948;2022-08-14T03:24:09;99944.87;;;16.88;74.54
41467;BME280;27205;53.690;19.948;2022-08-14T03:29:25;99939.45;;;16.88;75.82
41467;BME280;27205;53.690;19.948;2022-08-14T03:34:31;99937.12;;;16.87;75.36
41467;BME280;27205;53.690;19.948;2022-08-14T03:39:54;99937.17;;;16.87;75.20
41467;BME280;27205;53.690;19.948;2022-08-14T03:44:58;99930.30;;;16.89;75.11
41467;BME280;27205;53.690;19.948;2022-08-14T03:50:22;99928.70;;;16.91;75.56
41467;BME280;27205;53.690;19.948;2022-08-14T03:55:34;99922.62;;;16.95;75.88
41467;BME280;27205;53.690;19.948;2022-08-14T04:00:39;99926.61;;;16.95;75.40
41467;BME280;27205;53.690;19.948;2022-08-14T04:05:46;99932.80;;;17.04;75.74
41467;BME280;27205;53.690;19.948;2022-08-14T04:10:50;99937.62;;;17.08;75.54
41467;BME280;27205;53.690;19.948;2022-08-14T04:15:54;99940.13;;;17.14;75.64
41467;BME280;27205;53.690;19.948;2022-08-14T04:21:09;99943.96;;;17.24;76.08
41467;BME280;27205;53.690;19.948;2022-08-14T04:26:14;99942.92;;;17.33;76.10
41467;BME280;27205;53.690;19.948;2022-08-14T04:31:38;99940.48;;;17.44;76.45
41467;BME280;27205;53.690;19.948;2022-08-14T04:37:03;99947.96;;;17.59;75.72
41467;BME280;27205;53.690;19.948;2022-08-14T04:42:27;99951.61;;;17.74;76.28
41467;BME280;27205;53.690;19.948;2022-08-14T04:47:55;99946.52;;;17.83;76.50
41467;BME280;27205;53.690;19.948;2022-08-14T04:53:38;99938.93;;;17.86;76.24
41467;BME280;27205;53.690;19.948;2022-08-14T04:58:46;99929.92;;;17.97;76.22
41467;BME280;27205;53.690;19.948;2022-08-14T05:03:51;99925.81;;;18.14;76.05
41467;BME280;27205;53.690;19.948;2022-08-14T05:08:58;99924.92;;;18.36;75.96
41467;BME280;27205;53.690;19.948;2022-08-14T05:14:03;99927.94;;;18.68;75.76
41467;BME280;27205;53.690;19.948;2022-08-14T05:19:27;99939.21;;;19.13;75.27
41467;BME280;27205;53.690;19.948;2022-08-14T05:24:33;99934.83;;;19.43;74.61
41467;BME280;27205;53.690;19.948;2022-08-14T05:29:39;99928.20;;;19.61;74.15
41467;BME280;27205;53.690;19.948;2022-08-14T05:34:49;99925.08;;;19.78;73.72
41467;BME280;27205;53.690;19.948;2022-08-14T05:39:53;99922.16;;;19.98;73.43
41467;BME280;27205;53.690;19.948;2022-08-14T05:44:57;99920.23;;;20.27;73.08
41467;BME280;27205;53.690;19.948;2022-08-14T05:50:01;99916.18;;;20.58;72.35
41467;BME280;27205;53.690;19.948;2022-08-14T05:55:07;99914.11;;;20.80;71.93
41467;BME280;27205;53.690;19.948;2022-08-14T06:00:11;99911.86;;;20.93;71.44
41467;BME280;27205;53.690;19.948;2022-08-14T06:05:27;99908.64;;;21.11;71.29
41467;BME280;27205;53.690;19.948;2022-08-14T06:10:31;99914.00;;;21.32;71.12
41467;BME280;27205;53.690;19.948;2022-08-14T06:15:35;99912.06;;;21.56;70.37
41467;BME280;27205;53.690;19.948;2022-08-14T06:20:39;99916.14;;;21.77;70.26
41467;BME280;27205;53.690;19.948;2022-08-14T06:25:42;99914.60;;;21.85;68.85
41467;BME280;27205;53.690;19.948;2022-08-14T06:30:55;99912.47;;;22.03;68.77
41467;BME280;27205;53.690;19.948;2022-08-14T06:35:59;99912.16;;;22.30;67.67
41467;BME280;27205;53.690;19.948;2022-08-14T06:41:02;99914.21;;;22.37;67.74
41467;BME280;27205;53.690;19.948;2022-08-14T06:46:12;99911.61;;;22.32;67.43
41467;BME280;27205;53.690;19.948;2022-08-14T06:51:33;99914.11;;;22.26;67.28
41467;BME280;27205;53.690;19.948;2022-08-14T06:56:46;99907.73;;;22.51;66.75
41467;BME280;27205;53.690;19.948;2022-08-14T07:01:58;99906.05;;;22.74;65.80
41467;BME280;27205;53.690;19.948;2022-08-14T07:07:21;99908.00;;;22.91;65.80
41467;BME280;27205;53.690;19.948;2022-08-14T07:12:25;99908.18;;;23.35;65.94
41467;BME280;27205;53.690;19.948;2022-08-14T07:17:49;99915.98;;;23.70;64.64
41467;BME280;27205;53.690;19.948;2022-08-14T07:22:53;99907.61;;;23.88;64.82
41467;BME280;27205;53.690;19.948;2022-08-14T07:28:10;99908.14;;;24.05;64.12
41467;BME280;27205;53.690;19.948;2022-08-14T07:33:27;99913.51;;;24.12;64.15
41467;BME280;27205;53.690;19.948;2022-08-14T07:38:32;99905.36;;;24.20;63.28
41467;BME280;27205;53.690;19.948;2022-08-14T07:43:40;99902.04;;;24.27;63.57
41467;BME280;27205;53.690;19.948;2022-08-14T07:48:44;99908.61;;;24.28;63.37
41467;BME280;27205;53.690;19.948;2022-08-14T07:53:49;99905.15;;;24.31;62.94
41467;BME280;27205;53.690;19.948;2022-08-14T07:58:59;99902.10;;;24.12;62.44
41467;BME280;27205;53.690;19.948;2022-08-14T08:04:02;99896.95;;;24.17;62.87
41467;BME280;27205;53.690;19.948;2022-08-14T08:09:23;99890.83;;;24.51;62.67
41467;BME280;27205;53.690;19.948;2022-08-14T08:14:34;99887.44;;;24.74;61.81
41467;BME280;27205;53.690;19.948;2022-08-14T08:19:58;99879.61;;;25.04;61.76
41467;BME280;27205;53.690;19.948;2022-08-14T08:25:02;99877.19;;;25.58;61.35
41467;BME280;27205;53.690;19.948;2022-08-14T08:30:15;99875.82;;;26.12;60.66
41467;BME280;27205;53.690;19.948;2022-08-14T08:35:24;99881.39;;;26.29;59.42
41467;BME280;27205;53.690;19.948;2022-08-14T08:40:50;99878.23;;;26.52;59.70
41467;BME280;27205;53.690;19.948;2022-08-14T08:46:26;99882.27;;;26.92;59.59
41467;BME280;27205;53.690;19.948;2022-08-14T08:51:32;99883.16;;;27.00;58.54
41467;BME280;27205;53.690;19.948;2022-08-14T09:01:59;99878.57;;;27.19;57.79
41467;BME280;27205;53.690;19.948;2022-08-14T09:07:07;99876.52;;;27.54;57.19
41467;BME280;27205;53.690;19.948;2022-08-14T09:12:13;99874.92;;;28.16;57.35
41467;BME280;27205;53.690;19.948;2022-08-14T09:17:17;99873.09;;;28.75;56.34
41467;BME280;27205;53.690;19.948;2022-08-14T09:22:22;99872.93;;;28.90;54.48
41467;BME280;27205;53.690;19.948;2022-08-14T09:27:38;99870.80;;;28.75;53.85
41467;BME280;27205;53.690;19.948;2022-08-14T09:44:19;99854.35;;;29.44;52.18
41467;BME280;27205;53.690;19.948;2022-08-14T09:49:36;99849.52;;;29.23;52.35
41467;BME280;27205;53.690;19.948;2022-08-14T09:54:44;99847.25;;;29.42;51.49
41467;BME280;27205;53.690;19.948;2022-08-14T09:59:51;99838.61;;;28.94;50.80
41467;BME280;27205;53.690;19.948;2022-08-14T10:05:06;99830.88;;;28.53;51.13
41467;BME280;27205;53.690;19.948;2022-08-14T10:10:11;99825.64;;;28.38;51.82
41467;BME280;27205;53.690;19.948;2022-08-14T10:15:28;99817.41;;;28.55;51.78
41467;BME280;27205;53.690;19.948;2022-08-14T10:20:33;99810.59;;;28.70;51.00
41467;BME280;27205;53.690;19.948;2022-08-14T10:25:46;99805.99;;;28.71;50.89
41467;BME280;27205;53.690;19.948;2022-08-14T10:30:54;99794.58;;;28.95;50.87
41467;BME280;27205;53.690;19.948;2022-08-14T10:35:59;99789.73;;;29.46;50.37
41467;BME280;27205;53.690;19.948;2022-08-14T10:41:15;99787.45;;;30.07;50.02
41467;BME280;27205;53.690;19.948;2022-08-14T10:46:20;99788.77;;;30.88;49.33
41467;BME280;27205;53.690;19.948;2022-08-14T11:02:30;99779.61;;;32.41;46.32
41467;BME280;27205;53.690;19.948;2022-08-14T11:12:58;99770.00;;;32.64;44.03
41467;BME280;27205;53.690;19.948;2022-08-14T11:18:06;99769.23;;;32.68;43.66
41467;BME280;27205;53.690;19.948;2022-08-14T11:23:26;99764.67;;;32.61;43.44
41467;BME280;27205;53.690;19.948;2022-08-14T11:28:41;99757.06;;;32.65;42.32
41467;BME280;27205;53.690;19.948;2022-08-14T11:33:52;99750.65;;;32.95;42.67
41467;BME280;27205;53.690;19.948;2022-08-14T11:38:57;99753.73;;;33.51;42.42
41467;BME280;27205;53.690;19.948;2022-08-14T11:44:00;99744.52;;;33.76;41.58
41467;BME280;27205;53.690;19.948;2022-08-14T11:49:06;99740.59;;;34.08;41.25
41467;BME280;27205;53.690;19.948;2022-08-14T11:54:13;99737.41;;;34.18;39.89
41467;BME280;27205;53.690;19.948;2022-08-14T11:59:21;99731.32;;;34.19;39.02
41467;BME280;27205;53.690;19.948;2022-08-14T12:04:34;99728.27;;;34.35;39.29
41467;BME280;27205;53.690;19.948;2022-08-14T12:09:38;99729.52;;;34.40;39.02
41467;BME280;27205;53.690;19.948;2022-08-14T12:20:04;99711.11;;;34.24;37.98
41467;BME280;27205;53.690;19.948;2022-08-14T12:25:13;99702.65;;;33.93;37.77
41467;BME280;27205;53.690;19.948;2022-08-14T12:35:44;99689.33;;;34.20;37.87
41467;BME280;27205;53.690;19.948;2022-08-14T12:40:49;99686.94;;;34.53;37.40
41467;BME280;27205;53.690;19.948;2022-08-14T12:45:53;99679.92;;;34.76;36.72
41467;BME280;27205;53.690;19.948;2022-08-14T12:50:57;99683.11;;;35.02;36.71
41467;BME280;27205;53.690;19.948;2022-08-14T12:56:00;99682.69;;;35.39;36.59
41467;BME280;27205;53.690;19.948;2022-08-14T13:01:31;99674.96;;;35.49;35.53
41467;BME280;27205;53.690;19.948;2022-08-14T13:06:54;99665.61;;;35.70;35.53
41467;BME280;27205;53.690;19.948;2022-08-14T13:12:01;99666.31;;;35.77;35.32
41467;BME280;27205;53.690;19.948;2022-08-14T13:17:27;99652.77;;;35.55;35.14
41467;BME280;27205;53.690;19.948;2022-08-14T13:22:41;99643.91;;;35.72;35.04
41467;BME280;27205;53.690;19.948;2022-08-14T13:27:50;99638.27;;;35.91;34.70
41467;BME280;27205;53.690;19.948;2022-08-14T13:32:56;99635.02;;;36.12;34.41
41467;BME280;27205;53.690;19.948;2022-08-14T13:38:01;99628.98;;;36.44;34.06
41467;BME280;27205;53.690;19.948;2022-08-14T13:43:06;99618.73;;;36.90;34.12
41467;BME280;27205;53.690;19.948;2022-08-14T13:48:11;99608.04;;;37.00;33.19
41467;BME280;27205;53.690;19.948;2022-08-14T13:53:43;99586.66;;;36.26;33.33
41467;BME280;27205;53.690;19.948;2022-08-14T13:59:07;99585.61;;;35.83;33.80
41467;BME280;27205;53.690;19.948;2022-08-14T14:04:14;99589.70;;;35.57;33.91
41467;BME280;27205;53.690;19.948;2022-08-14T14:09:28;99601.95;;;35.86;34.42
41467;BME280;27205;53.690;19.948;2022-08-14T14:14:45;99592.10;;;35.11;35.62
41467;BME280;27205;53.690;19.948;2022-08-14T14:19:57;99568.53;;;33.68;36.70
41467;BME280;27205;53.690;19.948;2022-08-14T14:25:01;99580.83;;;32.55;37.66
41467;BME280;27205;53.690;19.948;2022-08-14T14:30:06;99597.96;;;31.95;38.49
41467;BME280;27205;53.690;19.948;2022-08-14T14:35:29;99616.70;;;31.11;39.52
41467;BME280;27205;53.690;19.948;2022-08-14T14:40:43;99666.73;;;30.05;39.86
41467;BME280;27205;53.690;19.948;2022-08-14T14:45:58;99648.52;;;28.63;42.32
41467;BME280;27205;53.690;19.948;2022-08-14T14:51:07;99622.23;;;26.59;44.05
41467;BME280;27205;53.690;19.948;2022-08-14T14:56:12;99636.90;;;25.70;44.90
41467;BME280;27205;53.690;19.948;2022-08-14T15:01:36;99626.52;;;25.30;46.41
41467;BME280;27205;53.690;19.948;2022-08-14T15:06:41;99627.45;;;25.04;47.39
41467;BME280;27205;53.690;19.948;2022-08-14T15:11:50;99685.15;;;24.74;48.43
41467;BME280;27205;53.690;19.948;2022-08-14T15:16:53;99717.37;;;24.26;50.68
41467;BME280;27205;53.690;19.948;2022-08-14T15:22:01;99717.23;;;23.90;51.66
41467;BME280;27205;53.690;19.948;2022-08-14T15:27:04;99693.70;;;23.78;52.22
41467;BME280;27205;53.690;19.948;2022-08-14T15:32:10;99675.74;;;23.69;52.53
41467;BME280;27205;53.690;19.948;2022-08-14T15:37:29;99664.59;;;23.66;54.40
41467;BME280;27205;53.690;19.948;2022-08-14T15:42:36;99635.09;;;23.63;54.82
41467;BME280;27205;53.690;19.948;2022-08-14T15:47:41;99623.52;;;23.55;56.02
41467;BME280;27205;53.690;19.948;2022-08-14T15:52:44;99631.77;;;23.42;56.34
41467;BME280;27205;53.690;19.948;2022-08-14T15:57:51;99642.19;;;23.39;56.75
41467;BME280;27205;53.690;19.948;2022-08-14T16:03:06;99649.23;;;23.36;57.89
41467;BME280;27205;53.690;19.948;2022-08-14T16:08:15;99657.31;;;23.22;59.11
41467;BME280;27205;53.690;19.948;2022-08-14T16:13:31;99659.89;;;23.08;59.98
41467;BME280;27205;53.690;19.948;2022-08-14T16:18:44;99652.38;;;22.98;60.66
41467;BME280;27205;53.690;19.948;2022-08-14T16:23:50;99639.84;;;22.86;61.32
41467;BME280;27205;53.690;19.948;2022-08-14T16:28:57;99627.66;;;22.76;61.99
41467;BME280;27205;53.690;19.948;2022-08-14T16:34:10;99632.05;;;22.74;63.88
41467;BME280;27205;53.690;19.948;2022-08-14T16:39:36;99643.73;;;22.61;63.91
41467;BME280;27205;53.690;19.948;2022-08-14T16:44:40;99634.86;;;22.56;63.80
41467;BME280;27205;53.690;19.948;2022-08-14T16:49:45;99628.17;;;22.56;64.22
41467;BME280;27205;53.690;19.948;2022-08-14T16:55:08;99634.36;;;22.67;64.31
41467;BME280;27205;53.690;19.948;2022-08-14T17:00:37;99627.06;;;22.74;64.71
41467;BME280;27205;53.690;19.948;2022-08-14T17:05:46;99612.98;;;22.79;65.02
41467;BME280;27205;53.690;19.948;2022-08-14T17:16:15;99616.91;;;22.79;65.87
41467;BME280;27205;53.690;19.948;2022-08-14T17:26:39;99617.44;;;22.75;67.55
41467;BME280;27205;53.690;19.948;2022-08-14T17:31:49;99610.27;;;22.51;68.19
41467;BME280;27205;53.690;19.948;2022-08-14T17:37:03;99603.55;;;22.40;68.37
41467;BME280;27205;53.690;19.948;2022-08-14T17:42:15;99589.10;;;22.37;68.71
41467;BME280;27205;53.690;19.948;2022-08-14T17:47:35;99588.47;;;22.30;71.20
41467;BME280;27205;53.690;19.948;2022-08-14T17:52:40;99576.42;;;22.10;72.63
41467;BME280;27205;53.690;19.948;2022-08-14T17:57:52;99573.46;;;21.96;72.20
41467;BME280;27205;53.690;19.948;2022-08-14T18:02:58;99568.58;;;21.88;74.59
41467;BME280;27205;53.690;19.948;2022-08-14T18:08:03;99573.79;;;21.71;76.60
41467;BME280;27205;53.690;19.948;2022-08-14T18:13:30;99569.45;;;21.57;76.16
41467;BME280;27205;53.690;19.948;2022-08-14T18:18:54;99561.52;;;21.49;75.81
41467;BME280;27205;53.690;19.948;2022-08-14T18:23:58;99568.08;;;21.43;75.77
41467;BME280;27205;53.690;19.948;2022-08-14T18:29:02;99572.52;;;21.39;76.25
41467;BME280;27205;53.690;19.948;2022-08-14T18:34:20;99573.23;;;21.39;76.28
41467;BME280;27205;53.690;19.948;2022-08-14T18:39:35;99576.48;;;21.39;76.35
41467;BME280;27205;53.690;19.948;2022-08-14T18:50:22;99587.45;;;21.43;76.15
41467;BME280;27205;53.690;19.948;2022-08-14T19:10:55;99578.14;;;21.21;78.96
41467;BME280;27205;53.690;19.948;2022-08-14T19:21:31;99575.34;;;20.92;80.01
41467;BME280;27205;53.690;19.948;2022-08-14T19:26:36;99579.45;;;20.89;79.19
41467;BME280;27205;53.690;19.948;2022-08-14T19:31:58;99587.27;;;20.92;79.34
41467;BME280;27205;53.690;19.948;2022-08-14T19:37:02;99594.85;;;20.90;79.84
41467;BME280;27205;53.690;19.948;2022-08-14T19:42:14;99601.80;;;20.83;79.65
41467;BME280;27205;53.690;19.948;2022-08-14T19:47:36;99595.71;;;20.77;80.38
41467;BME280;27205;53.690;19.948;2022-08-14T19:52:43;99595.44;;;20.74;80.42
41467;BME280;27205;53.690;19.948;2022-08-14T19:57:52;99594.91;;;20.76;80.60
41467;BME280;27205;53.690;19.948;2022-08-14T20:03:03;99593.32;;;20.75;81.02
41467;BME280;27205;53.690;19.948;2022-08-14T20:08:14;99590.99;;;20.73;81.24
41467;BME280;27205;53.690;19.948;2022-08-14T20:13:37;99592.80;;;20.64;81.43
41467;BME280;27205;53.690;19.948;2022-08-14T20:18:42;99593.62;;;20.60;81.73
41467;BME280;27205;53.690;19.948;2022-08-14T20:24:12;99592.16;;;20.53;82.05
41467;BME280;27205;53.690;19.948;2022-08-14T20:29:33;99586.54;;;20.48;82.80
41467;BME280;27205;53.690;19.948;2022-08-14T20:34:42;99582.71;;;20.45;83.20
41467;BME280;27205;53.690;19.948;2022-08-14T20:39:53;99575.72;;;20.43;83.58
41467;BME280;27205;53.690;19.948;2022-08-14T20:44:59;99576.59;;;20.41;83.74
41467;BME280;27205;53.690;19.948;2022-08-14T20:50:26;99579.15;;;20.39;84.19
41467;BME280;27205;53.690;19.948;2022-08-14T20:55:36;99578.40;;;20.38;84.40
41467;BME280;27205;53.690;19.948;2022-08-14T21:06:05;99574.63;;;20.31;85.19
41467;BME280;27205;53.690;19.948;2022-08-14T21:11:22;99582.08;;;20.30;84.90
41467;BME280;27205;53.690;19.948;2022-08-14T21:16:25;99587.40;;;20.33;85.07
41467;BME280;27205;53.690;19.948;2022-08-14T21:21:41;99588.17;;;20.31;86.11
41467;BME280;27205;53.690;19.948;2022-08-14T21:27:00;99589.27;;;20.30;85.46
41467;BME280;27205;53.690;19.948;2022-08-14T21:32:15;99587.27;;;20.29;85.78
41467;BME280;27205;53.690;19.948;2022-08-14T21:37:40;99582.41;;;20.30;86.48
41467;BME280;27205;53.690;19.948;2022-08-14T21:42:49;99575.30;;;20.23;86.77
41467;BME280;27205;53.690;19.948;2022-08-14T21:47:54;99574.59;;;20.16;87.03
41467;BME280;27205;53.690;19.948;2022-08-14T21:52:59;99576.90;;;20.16;86.70
41467;BME280;27205;53.690;19.948;2022-08-14T21:58:07;99573.09;;;20.15;86.59
41467;BME280;27205;53.690;19.948;2022-08-14T22:03:32;99571.09;;;20.12;86.58
41467;BME280;27205;53.690;19.948;2022-08-14T22:08:38;99566.73;;;20.11;86.28
41467;BME280;27205;53.690;19.948;2022-08-14T22:13:47;99559.34;;;20.08;86.89
41467;BME280;27205;53.690;19.948;2022-08-14T22:18:51;99550.46;;;20.00;87.06
41467;BME280;27205;53.690;19.948;2022-08-14T22:23:59;99548.99;;;19.95;86.86
41467;BME280;27205;53.690;19.948;2022-08-14T22:29:14;99551.95;;;19.97;86.40
41467;BME280;27205;53.690;19.948;2022-08-14T22:34:19;99548.71;;;20.01;86.30
41467;BME280;27205;53.690;19.948;2022-08-14T22:39:26;99549.38;;;20.04;86.27
41467;BME280;27205;53.690;19.948;2022-08-14T22:44:51;99554.98;;;20.05;86.38
41467;BME280;27205;53.690;19.948;2022-08-14T22:49:58;99545.36;;;19.98;86.34
41467;BME280;27205;53.690;19.948;2022-08-14T22:55:22;99536.90;;;19.87;87.16
41467;BME280;27205;53.690;19.948;2022-08-14T23:00:25;99532.96;;;19.78;87.40
41467;BME280;27205;53.690;19.948;2022-08-14T23:05:32;99528.09;;;19.71;87.58
41467;BME280;27205;53.690;19.948;2022-08-14T23:10:53;99526.74;;;19.67;87.53
41467;BME280;27205;53.690;19.948;2022-08-14T23:15:57;99527.14;;;19.64;87.46
41467;BME280;27205;53.690;19.948;2022-08-14T23:21:00;99518.12;;;19.66;87.48
41467;BME280;27205;53.690;19.948;2022-08-14T23:26:05;99512.23;;;19.69;87.36
41467;BME280;27205;53.690;19.948;2022-08-14T23:31:30;99516.83;;;19.70;87.55
41467;BME280;27205;53.690;19.948;2022-08-14T23:36:39;99521.94;;;19.74;87.50
41467;BME280;27205;53.690;19.948;2022-08-14T23:42:08;99518.67;;;19.72;87.57
41467;BME280;27205;53.690;19.948;2022-08-14T23:47:11;99525.03;;;19.74;87.47
41467;BME280;27205;53.690;19.948;2022-08-14T23:52:35;99525.50;;;19.76;87.59
41467;BME280;27205;53.690;19.948;2022-08-14T23:57:59;99529.91;;;19.78;87.70
